createdAt,value
2022-12-06T00:02:14.861Z,101780.59
2022-12-06T00:05:21.508Z,101789.63
2022-12-06T00:08:27.138Z,101785.20
2022-12-06T00:11:34.985Z,101774.16
2022-12-06T00:14:39.970Z,101775.05
2022-12-06T00:17:45.910Z,101767.53
2022-12-06T00:20:50.998Z,101773.02
2022-12-06T00:23:59.380Z,101770.45
2022-12-06T00:27:04.758Z,101769.61
2022-12-06T00:30:10.627Z,101766.23
2022-12-06T00:33:16.685Z,101776.06
2022-12-06T00:36:25.858Z,101758.24
2022-12-06T00:39:33.426Z,101757.81
2022-12-06T00:42:39.186Z,101760.73
2022-12-06T00:45:43.880Z,101760.75
2022-12-06T00:48:49.316Z,101756.31
2022-12-06T00:51:55.500Z,101748.08
2022-12-06T00:55:01.515Z,101750.27
2022-12-06T00:58:00.544Z,101744.25
2022-12-06T01:00:59.739Z,101748.59
2022-12-06T01:04:07.199Z,101744.88
2022-12-06T01:07:12.475Z,101747.38
2022-12-06T01:10:18.346Z,101739.48
2022-12-06T01:13:24.190Z,101737.42
2022-12-06T01:16:34.455Z,101740.81
2022-12-06T01:19:41.057Z,101739.98
2022-12-06T01:22:46.250Z,101742.72
2022-12-06T01:25:51.891Z,101736.69
2022-12-06T01:28:57.457Z,101733.59
2022-12-06T01:32:02.389Z,101731.88
2022-12-06T01:35:08.322Z,101729.33
2022-12-06T01:38:15.012Z,101724.18
2022-12-06T01:41:20.970Z,101722.97
2022-12-06T01:44:59.690Z,101724.02
2022-12-06T01:48:05.384Z,101722.92
2022-12-06T01:51:11.172Z,101724.69
2022-12-06T01:54:18.274Z,101728.19
2022-12-06T01:57:25.120Z,101725.37
2022-12-06T02:00:30.819Z,101714.20
2022-12-06T02:03:38.450Z,101709.70
2022-12-06T02:06:44.930Z,101711.47
2022-12-06T02:09:50.519Z,101703.81
2022-12-06T02:12:56.083Z,101702.03
2022-12-06T02:16:24.402Z,101698.84
2022-12-06T02:19:53.336Z,101697.35
2022-12-06T02:23:40.999Z,101693.44
2022-12-06T02:27:03.380Z,101698.93
2022-12-06T02:30:28.627Z,101698.86
2022-12-06T02:33:41.705Z,101691.37
2022-12-06T02:37:06.513Z,101691.25
2022-12-06T02:40:21.520Z,101685.72
2022-12-06T02:43:31.540Z,101683.55
2022-12-06T02:46:37.151Z,101683.70
2022-12-06T02:49:42.589Z,101679.19
2022-12-06T02:52:48.429Z,101667.91
2022-12-06T02:55:54.515Z,101673.20
2022-12-06T02:59:00.403Z,101671.19
2022-12-06T03:02:10.729Z,101666.76
2022-12-06T03:05:24.349Z,101672.18
2022-12-06T03:08:33.978Z,101682.61
2022-12-06T03:11:44.046Z,101661.78
2022-12-06T03:14:53.868Z,101674.69
2022-12-06T03:18:09.225Z,101669.80
2022-12-06T03:21:25.704Z,101662.88
2022-12-06T03:24:31.229Z,101657.92
2022-12-06T03:27:37.361Z,101657.89
2022-12-06T03:30:42.387Z,101659.02
2022-12-06T03:33:48.843Z,101656.17
2022-12-06T03:36:48.235Z,101649.25
2022-12-06T03:39:57.231Z,101668.91
2022-12-06T03:43:03.261Z,101667.23
2022-12-06T03:46:16.119Z,101661.94
2022-12-06T03:49:26.655Z,101659.12
2022-12-06T03:52:33.046Z,101667.11
2022-12-06T03:55:39.063Z,101660.34
2022-12-06T03:58:44.572Z,101663.16
2022-12-06T04:01:49.300Z,101654.59
2022-12-06T04:04:56.360Z,101665.47
2022-12-06T04:08:01.823Z,101660.73
2022-12-06T04:11:07.565Z,101652.62
2022-12-06T04:14:13.033Z,101652.53
2022-12-06T04:17:36.944Z,101646.64
2022-12-06T04:21:00.772Z,101640.92
2022-12-06T04:24:07.443Z,101642.78
2022-12-06T04:27:30.728Z,101637.59
2022-12-06T04:30:54.069Z,101638.58
2022-12-06T04:34:17.780Z,101635.07
2022-12-06T04:37:40.472Z,101631.30
2022-12-06T04:40:40.035Z,101630.82
2022-12-06T04:43:51.951Z,101628.45
2022-12-06T04:46:58.827Z,101622.80
2022-12-06T04:50:04.949Z,101621.52
2022-12-06T04:53:09.928Z,101625.02
2022-12-06T04:56:15.084Z,101618.85
2022-12-06T04:59:21.335Z,101612.27
2022-12-06T05:02:28.451Z,101618.02
2022-12-06T05:05:33.374Z,101604.39
2022-12-06T05:08:38.899Z,101605.65
2022-12-06T05:11:47.714Z,101607.77
2022-12-06T05:14:54.017Z,101603.80
2022-12-06T05:17:53.231Z,101597.80
2022-12-06T05:20:46.408Z,101599.51
2022-12-06T05:23:52.110Z,101599.73
2022-12-06T05:26:58.512Z,101600.83
2022-12-06T05:29:57.949Z,101602.47
2022-12-06T05:33:03.144Z,101606.34
2022-12-06T05:36:08.384Z,101604.59
2022-12-06T05:39:15.001Z,101610.76
2022-12-06T05:42:22.423Z,101603.31
2022-12-06T05:45:27.477Z,101613.70
2022-12-06T05:48:32.767Z,101613.06
2022-12-06T05:51:38.871Z,101604.70
2022-12-06T05:54:43.894Z,101605.56
2022-12-06T05:57:50.306Z,101599.45
2022-12-06T06:00:56.025Z,101593.15
2022-12-06T06:04:01.833Z,101597.62
2022-12-06T06:07:07.950Z,101596.29
2022-12-06T06:10:13.333Z,101596.63
2022-12-06T06:13:19.124Z,101593.00
2022-12-06T06:16:25.195Z,101601.86
2022-12-06T06:19:30.806Z,101606.52
2022-12-06T06:22:36.802Z,101609.91
2022-12-06T06:25:42.977Z,101613.48
2022-12-06T06:28:47.822Z,101615.61
2022-12-06T06:31:53.636Z,101617.92
2022-12-06T06:34:59.270Z,101614.66
2022-12-06T06:38:04.677Z,101615.73
2022-12-06T06:41:11.051Z,101611.44
2022-12-06T06:44:16.863Z,101615.31
2022-12-06T06:47:23.381Z,101609.31
2022-12-06T06:50:29.019Z,101607.73
2022-12-06T06:53:34.752Z,101596.00
2022-12-06T06:56:40.223Z,101596.95
2022-12-06T06:59:45.860Z,101590.48
2022-12-06T07:02:50.978Z,101582.07
2022-12-06T07:05:57.091Z,101583.94
2022-12-06T07:09:04.427Z,101586.93
2022-12-06T07:12:10.148Z,101584.39
2022-12-06T07:15:09.601Z,101588.03
2022-12-06T07:18:16.269Z,101579.66
2022-12-06T07:21:22.551Z,101581.89
2022-12-06T07:24:27.426Z,101574.25
2022-12-06T07:27:32.488Z,101578.12
2022-12-06T07:30:39.271Z,101580.92
2022-12-06T07:33:45.863Z,101558.75
2022-12-06T07:36:51.481Z,101565.77
2022-12-06T07:39:57.996Z,101567.81
2022-12-06T08:24:11.038Z,101491.23
2022-12-06T08:27:17.112Z,101496.55
2022-12-06T08:30:16.790Z,101486.62
2022-12-06T08:33:03.179Z,101486.41
2022-12-06T08:35:58.055Z,101482.06
2022-12-06T08:38:52.422Z,101481.34
2022-12-06T08:42:07.776Z,101484.60
2022-12-06T08:45:13.459Z,101474.77
2022-12-06T08:48:18.991Z,101474.20
2022-12-06T08:51:25.318Z,101473.80
2022-12-06T08:54:32.682Z,101453.41
2022-12-06T08:57:38.296Z,101458.36
2022-12-06T09:00:44.157Z,101461.56
2022-12-06T09:03:53.683Z,101445.62
2022-12-06T09:06:59.047Z,101442.44
2022-12-06T09:10:07.417Z,101451.23
2022-12-06T09:13:13.974Z,101444.33
2022-12-06T09:16:29.527Z,101441.00
2022-12-06T09:19:35.646Z,101430.28
2022-12-06T09:22:41.458Z,101430.34
2022-12-06T09:25:47.023Z,101430.08
2022-12-06T09:28:56.469Z,101424.47
2022-12-06T09:32:01.457Z,101420.32
2022-12-06T09:35:12.306Z,101422.61
2022-12-06T09:38:07.422Z,101412.05
2022-12-06T09:41:40.359Z,101419.75
2022-12-06T09:45:26.369Z,101409.80
2022-12-06T09:49:15.784Z,101402.41
2022-12-06T09:52:30.476Z,101396.25
2022-12-06T09:56:02.432Z,101375.52
2022-12-06T09:59:30.170Z,101373.70
2022-12-06T10:03:23.970Z,101366.31
2022-12-06T10:06:36.773Z,101368.13
2022-12-06T10:10:06.546Z,101353.25
2022-12-06T10:13:50.807Z,101347.52
2022-12-06T10:17:28.641Z,101341.67
2022-12-06T10:20:51.184Z,101336.62
2022-12-06T10:24:23.568Z,101315.72
2022-12-06T10:27:57.065Z,101324.13
2022-12-06T10:31:11.174Z,101331.91
2022-12-06T10:34:30.041Z,101310.44
2022-12-06T10:37:52.461Z,101290.47
2022-12-06T10:41:11.673Z,101298.61
2022-12-06T10:44:26.700Z,101293.09
2022-12-06T10:47:51.803Z,101288.92
2022-12-06T10:50:57.555Z,101286.66
2022-12-06T10:54:07.946Z,101295.15
2022-12-06T10:57:16.882Z,101296.38
2022-12-06T11:00:38.502Z,101292.94
2022-12-06T11:04:02.656Z,101293.06
2022-12-06T11:07:11.036Z,101295.15
2022-12-06T11:10:15.331Z,101292.75
2022-12-06T11:13:57.345Z,101289.14
2022-12-06T11:17:33.532Z,101282.44
2022-12-06T11:20:44.311Z,101276.56
2022-12-06T11:24:16.507Z,101265.72
2022-12-06T11:27:29.655Z,101263.25
2022-12-06T11:30:34.885Z,101256.96
2022-12-06T11:33:41.957Z,101265.10
2022-12-06T11:36:48.043Z,101265.20
2022-12-06T11:39:54.176Z,101256.85
2022-12-06T11:43:00.332Z,101252.67
2022-12-06T11:46:06.728Z,101251.89
2022-12-06T11:49:19.006Z,101243.98
2022-12-06T11:52:39.921Z,101248.83
2022-12-06T11:55:57.101Z,101231.66
2022-12-06T11:59:29.378Z,101245.86
2022-12-06T12:02:46.097Z,101231.23
2022-12-06T12:05:53.112Z,101234.09
2022-12-06T12:09:12.822Z,101238.02
2022-12-06T12:12:25.038Z,101234.83
2022-12-06T12:15:34.143Z,101233.86
2022-12-06T12:18:44.020Z,101235.38
2022-12-06T12:21:56.214Z,101221.05
2022-12-06T12:25:18.792Z,101224.73
2022-12-06T12:28:17.561Z,101213.52
2022-12-06T12:31:37.703Z,101205.22
2022-12-06T12:34:44.557Z,101212.77
2022-12-06T12:37:49.500Z,101223.75
2022-12-06T12:41:07.891Z,101211.39
2022-12-06T12:44:37.173Z,101211.36
2022-12-06T12:47:33.258Z,101208.55
2022-12-06T12:50:38.691Z,101203.24
2022-12-06T12:53:53.313Z,101194.64
2022-12-06T12:57:00.075Z,101199.53
2022-12-06T13:00:06.534Z,101197.59
2022-12-06T13:03:49.362Z,101193.39
2022-12-06T13:06:46.116Z,101202.09
2022-12-06T13:10:20.118Z,101198.41
2022-12-06T13:13:34.456Z,101200.14
2022-12-06T13:16:46.552Z,101186.47
2022-12-06T13:19:54.452Z,101194.09
2022-12-06T13:22:53.933Z,101189.54
2022-12-06T13:26:10.176Z,101189.57
2022-12-06T13:29:23.504Z,101199.63
2022-12-06T13:32:33.469Z,101204.38
2022-12-06T13:35:52.973Z,101189.55
2022-12-06T13:38:59.047Z,101194.39
2022-12-06T13:42:27.454Z,101197.21
2022-12-06T13:45:51.871Z,101200.16
2022-12-06T19:20:54.361Z,101048.66
2022-12-06T19:24:01.161Z,101053.91
2022-12-06T19:27:10.523Z,101045.97
2022-12-06T19:30:16.617Z,101051.56
2022-12-06T19:33:22.853Z,101046.28
2022-12-06T19:36:42.684Z,101051.60
2022-12-06T19:39:41.780Z,101040.96
2022-12-06T19:43:06.535Z,101036.45
2022-12-06T19:46:15.904Z,101035.95
2022-12-06T19:49:21.428Z,101031.02
2022-12-06T19:52:30.845Z,101030.93
2022-12-06T19:55:33.875Z,101023.50
2022-12-06T19:58:39.238Z,101027.95
2022-12-06T20:01:44.923Z,101020.20
2022-12-06T20:04:46.362Z,101017.24
2022-12-06T20:07:52.136Z,101023.79
2022-12-06T20:10:57.497Z,101025.48
2022-12-06T20:14:03.049Z,101024.42
2022-12-06T20:17:08.407Z,101018.20
2022-12-06T20:20:13.656Z,101025.69
2022-12-06T20:23:20.765Z,101021.53
2022-12-06T20:26:26.799Z,101018.83
2022-12-06T20:29:33.742Z,101024.66
2022-12-06T20:32:39.183Z,101018.40
2022-12-06T20:35:44.211Z,101022.61
2022-12-06T20:38:49.667Z,101027.50
2022-12-06T20:41:54.688Z,101031.82
2022-12-06T20:45:01.177Z,101031.50
2022-12-06T20:48:08.310Z,101032.26
2022-12-06T20:51:14.456Z,101035.82
2022-12-06T20:54:14.252Z,101026.54
2022-12-06T20:57:06.463Z,101033.78
2022-12-06T21:00:12.348Z,101027.25
2022-12-06T21:03:18.301Z,101035.76
2022-12-06T21:06:25.044Z,101031.13
2022-12-06T21:09:30.554Z,101033.44
2022-12-06T21:12:36.706Z,101027.53
2022-12-06T21:15:41.855Z,101027.94
2022-12-06T21:18:46.703Z,101015.75
2022-12-06T21:21:54.363Z,101008.39
2022-12-06T21:25:01.574Z,101010.53
2022-12-06T21:28:07.341Z,101006.68
2022-12-06T21:31:12.933Z,100999.84
2022-12-06T21:34:18.636Z,100990.43
2022-12-06T21:37:23.791Z,100987.83
2022-12-06T21:40:28.800Z,100987.94
2022-12-06T21:43:34.862Z,100991.58
2022-12-06T21:46:41.200Z,100989.13
2022-12-06T21:49:46.516Z,100984.38
2022-12-06T21:52:52.065Z,100982.56
2022-12-06T21:55:57.352Z,100982.73
2022-12-06T21:59:02.947Z,100985.36
2022-12-06T22:02:02.179Z,100979.52
2022-12-06T22:05:10.162Z,100970.94
2022-12-06T22:08:19.410Z,100961.66
2022-12-06T22:11:30.142Z,100957.91
2022-12-06T22:14:35.941Z,100947.12
2022-12-06T22:17:42.024Z,100941.67
2022-12-06T22:20:47.735Z,100930.51
2022-12-06T22:23:53.239Z,100928.81
2022-12-06T22:26:59.502Z,100930.42
2022-12-06T22:30:04.750Z,100923.44
2022-12-06T22:33:10.048Z,100913.17
2022-12-06T22:36:15.232Z,100923.32
2022-12-06T22:39:21.581Z,100924.18
2022-12-06T22:42:28.284Z,100916.02
2022-12-06T22:45:33.468Z,100925.66
2022-12-06T22:48:39.509Z,100908.56
2022-12-06T22:51:51.096Z,100924.34
2022-12-06T22:54:56.785Z,100923.95
2022-12-06T22:58:01.826Z,100916.53
2022-12-06T23:01:07.137Z,100916.84
2022-12-06T23:04:13.777Z,100910.70
2022-12-06T23:07:18.622Z,100907.71
2022-12-06T23:10:17.938Z,100914.00
2022-12-06T23:13:03.901Z,100897.31
2022-12-06T23:16:03.108Z,100904.08
2022-12-06T23:19:02.425Z,100907.38
2022-12-06T23:22:07.912Z,100900.12
2022-12-06T23:25:13.540Z,100909.69
2022-12-06T23:28:18.265Z,100903.36
2022-12-06T23:31:35.281Z,100903.59
2022-12-06T23:34:41.177Z,100902.59
2022-12-06T23:37:47.770Z,100902.34
2022-12-06T23:40:53.306Z,100899.95
2022-12-06T23:43:59.080Z,100897.80
2022-12-06T23:47:04.468Z,100897.57
2022-12-06T23:50:09.518Z,100904.25
2022-12-06T23:53:14.494Z,100898.61
2022-12-06T23:56:30.437Z,100908.59
2022-12-06T23:59:35.409Z,100906.84
